Nearby METAR Reports

METAR is the scheduled surface weather observation taken hourly at civil and military airport locations.

METAR is an acronym from the French language and roughly translates as Aviation Routine Weather Report.

 

EGPL - Benbecula Island, United Kingdom
Distance from station: WNW 41mi, 66km
Updated: 23/10/2017 10:20
Few Clouds
Few Clouds
 Wind from S
Wind: S 15 mph , 24 km/h
Temperature: 12°C
Dew Point: 11°C
Humidity: 94%
Barometer: 1003 hPa
Clouds: Few Clouds
Visibility: 6 miles , 10 km
Cloud details: Few Clouds 335 m
2017/10/23 09:20 EGPL 230920Z 19013KT 9999 FEW011 12/11 Q1003
EGPU - Tiree Island, United Kingdom
Distance from station: SSW 56mi, 90km
Updated: 23/10/2017 10:20
Few Clouds
Few Clouds
 Wind from SW
Wind: SW 18 mph , 30 km/h
Temperature: 12°C
Dew Point: 11°C
Humidity: 94%
Barometer: 1005 hPa
Clouds: Few Clouds
Visibility: 6 miles , 10 km
Cloud details: Few Clouds 274 m
2017/10/23 09:20 EGPU 230920Z 23016KT 300V100 9999 FEW009 12/11 Q1005
 
EGEO - Oban Airport, United Kingdom
Distance from station: SE 65mi, 105km
Updated: 23/10/2017 10:50
Mostly cloudy
Mostly cloudy
 Wind from S
Wind: S 12 mph , 19 km/h
Temperature: 13°C
Dew Point: 12°C
Humidity: 94%
Barometer: 1007 hPa
Clouds: Mostly cloudy
Visibility: 6 miles , 10 km
Cloud details: Few Clouds 183 m
Partly cloudy 457 m
Mostly cloudy 914 m
2017/10/23 09:50 EGEO 230950Z 18010KT 9999 FEW006 SCT015 BKN030 13/12 Q1007
EGPO - Stornoway, United Kingdom
Distance from station: 0 66mi, 106km
Updated: 23/10/2017 10:20
Few Clouds
Few Clouds
 Wind from S
Wind: S 12 mph , 19 km/h
Temperature: 13°C
Dew Point: 11°C
Humidity: 88%
Barometer: 1003 hPa
Clouds: Few Clouds
Visibility: 6 miles , 10 km
Cloud details: Few Clouds 366 m
2017/10/23 09:20 EGPO 230920Z 19010KT 9999 FEW012 13/11 Q1003
 
EGPE - Inverness/Dalcro, United Kingdom
Distance from station: ENE 88mi, 141km
Updated: 23/10/2017 10:20
Few Clouds
Few Clouds
 Wind from varies
Wind: varies 2 mph , 4 km/h
Temperature: 9°C
Dew Point: 8°C
Humidity: 94%
Barometer: 1006 hPa
Clouds: Few Clouds
Visibility: 6 miles , 10 km
Cloud details: Few Clouds 762 m
2017/10/23 09:20 EGPE 230920Z VRB02KT 9999 FEW025 09/08 Q1006
EGQA - Tain Range (saws, United Kingdom
Distance from station: ENE 97mi, 156km
Updated: 23/10/2017 08:50
NOT Current
Few Clouds
Few Clouds
 Wind from ESE
Wind: ESE 6 mph , 9 km/h
Clouds: Few Clouds
Visibility: 6 miles , 10 km
Cloud details: Few Clouds 671 m
2017/10/23 07:50 EGQA 230750Z 12005KT 9999 FEW022 08/// Q1006 BLU
 
EGQK - Kinloss Raf, United Kingdom
Distance from station: ENE 107mi, 171km
Updated: 23/10/2017 09:50
Mostly cloudy
Mostly cloudy
 Wind from ENE
Wind: ENE 5 mph , 7 km/h
Temperature: 9°C
Wind Chill: 8°C
Dew Point: 8°C
Humidity: 94%
Barometer: 1006 hPa
Clouds: Mostly cloudy
Visibility: 6 miles , 10 km
Cloud details: Mostly cloudy 1524 m
Mostly cloudy 2438 m
2017/10/23 08:50 EGQK 230850Z AUTO 07004KT 9999 BKN050/// BKN080/// 09/08 Q1006
EGPI - Islay/Port Ellen, United Kingdom
Distance from station: S 110mi, 177km
Updated: 23/10/2017 10:20
Partly cloudy
Partly cloudy
 Wind from S
Wind: S 12 mph , 19 km/h
Temperature: 13°C
Dew Point: 12°C
Humidity: 94%
Barometer: 1007 hPa
Clouds: Partly cloudy
Visibility: 6 miles , 10 km
Cloud details: Partly cloudy 244 m
2017/10/23 09:20 EGPI 230920Z 18010KT 150V210 9999 SCT008 13/12 Q1007
 
EGQS - Lossiemouth Raf, United Kingdom
Distance from station: ENE 117mi, 188km
Updated: 23/10/2017 09:50
Light rain, Mostly cloudy
Light rain, Mostly cloudy
 Wind from SSW
Wind: SSW 2 mph , 4 km/h
Temperature: 10°C
Dew Point: 8°C
Humidity: 88%
Barometer: 1006 hPa
Summary: Light rain
Clouds: Mostly cloudy
Visibility: 6 miles , 10 km
Cloud details: Few Clouds 914 m
Partly cloudy 1829 m
Mostly cloudy 2438 m
2017/10/23 08:50 EGQS 230850Z 20002KT 9999 -RA FEW030 SCT060 BKN080 10/08 Q1006 BLU TEMPO 7000 -RA SCT020 WHT
EGPF - Glasgow Airport, United Kingdom
Distance from station: SE 121mi, 195km
Updated: 23/10/2017 10:20
Light drizzle, Overcast
Light drizzle, Overcast
 Wind from varies
Wind: varies 2 mph , 4 km/h
Temperature: 11°C
Dew Point: 11°C
Humidity: 100%
Barometer: 1009 hPa
Summary: Light Drizzle
Clouds: Overcast
Visibility: 2 miles , 4 km
Cloud details: Mostly cloudy 152 m
Overcast 305 m
2017/10/23 09:20 EGPF 230920Z AUTO VRB02KT 3900 -DZ BKN005 OVC010 11/11 Q1009 REDZ
 
EGEC - Campbeltown, United Kingdom
Distance from station: SSE 129mi, 207km
Updated: 23/10/2017 10:20
Mostly cloudy
Mostly cloudy
 Wind from SE
Wind: SE 9 mph , 15 km/h
Temperature: 13°C
Dew Point: 13°C
Humidity: 100%
Barometer: 1008 hPa
Clouds: Mostly cloudy
Visibility: 6 miles , 10 km
Cloud details: Few Clouds 366 m
Mostly cloudy 975 m
2017/10/23 09:20 EGEC 230920Z 14008KT 9999 FEW012 BKN032 13/13 Q1008
EGPN - Dundee/Riverside, United Kingdom
Distance from station: ESE 137mi, 221km
Updated: 23/10/2017 10:20
Rain showers, Mostly cloudy
Rain showers, Mostly cloudy
 Wind from E
Wind: E 5 mph , 7 km/h
Temperature: 9°C
Wind Chill: 8°C
Dew Point: 7°C
Humidity: 87%
Barometer: 1009 hPa
Summary: Rain Showers
Clouds: Mostly cloudy
Visibility: 6 miles , 10 km
Cloud details: Partly cloudy 610 m
Mostly cloudy 732 m
2017/10/23 09:20 EGPN 230920Z 08004KT 9999 SHRA SCT020 BKN024 09/07 Q1009
 
EGPK - Prestwick(Civ/Na, United Kingdom
Distance from station: SSE 139mi, 224km
Updated: 23/10/2017 10:20
Light rain, Partly cloudy
Light rain, Partly cloudy
 Wind from S
Wind: S 7 mph , 11 km/h
Temperature: 14°C
Dew Point: 12°C
Humidity: 88%
Barometer: 1009 hPa
Summary: Light rain
Clouds: Partly cloudy
Visibility: 6 miles , 10 km
Cloud details: Few Clouds 305 m
Partly cloudy 610 m
2017/10/23 09:20 EGPK 230920Z 19006KT 170V230 9999 -RA FEW010 SCT020 14/12 Q1009
EGQL - Leuchars Raf, United Kingdom
Distance from station: ESE 145mi, 233km
Updated: 23/10/2017 08:50
NOT Current
Few Clouds
Few Clouds
 Wind from SE
Wind: SE 2 mph , 4 km/h
Temperature: 8°C
Dew Point: 8°C
Humidity: 100%
Barometer: 1010 hPa
Clouds: Few Clouds
Visibility: 6 miles , 10 km
Cloud details: Few Clouds 1372 m
2017/10/23 07:50 EGQL 230750Z 14002KT 9999 FEW045 08/08 Q1010 BLU
 
EGPH - Edinburgh Airpor, United Kingdom
Distance from station: SE 145mi, 234km
Updated: 23/10/2017 10:20
Mostly cloudy
Mostly cloudy
 Wind from WSW
Wind: WSW 5 mph , 7 km/h
Temperature: 14°C
Dew Point: 11°C
Humidity: 82%
Barometer: 1009 hPa
Clouds: Mostly cloudy
Visibility: 6 miles , 10 km
Cloud details: Mostly cloudy 549 m
2017/10/23 09:20 EGPH 230920Z 25004KT 200V270 9999 BKN018 14/11 Q1009
EGPC - Wick, United Kingdom
Distance from station: NE 146mi, 234km
Updated: 23/10/2017 10:20
Rain, Partly cloudy
Rain, Partly cloudy
 Wind from SSE
Wind: SSE 20 mph , 31 km/h
Temperature: 10°C
Wind Chill: 7°C
Dew Point: 9°C
Humidity: 94%
Barometer: 1006 hPa
Summary: Rain
Clouds: Partly cloudy
Visibility: 2 miles , 4 km
Cloud details: Partly cloudy 549 m
2017/10/23 09:20 EGPC 230920Z 16017KT 3500 RA SCT018 10/09 Q1006

-

free counters
QR Code Twitter Scottish Weather Network UK Weather Network
Argyll House B & B

Argyll House B & B is situated in North West Skye and is the perfect base to see all that the Isle of Skye has to offer.
Bookings been taken for 2017.